RJBB Airport Information

Runway Information
Runway 06L Length 13123 ft width 196 ft
Elevation 24 ft Threshold 0 ft Heading 51
Runway 24R Length 13123 ft Width 196 ft
Elevation 32 ft Threshold 0 ft Heading 231
Runway 06R Length 11483 ft width 196 ft
Elevation 6 ft Threshold 0 ft Heading 51
Runway 24L Length 11483 ft Width 196 ft
Elevation 15 ft Threshold 0 ft Heading 231
Airport Frequencies
Type APP Name APP Frequency 120.25 MHZ
Type ATIS Name ATIS Frequency 127.85 MHZ
Type CLD Name CLNC DEL Frequency 121.9 MHZ
Type DEP Name DEP Frequency 119.2 MHZ
Type GND Name GND Frequency 121.6 MHZ
Type TCA Name TCA Frequency 121.1 MHZ
Type TWR Name TWR Frequency 118.2 MHZ
Airport Navaids
Type NDB Name Kansai Frequency 346 KHZ
Type VOR-DME Name Kansai Frequency 111800 KHZ
Type VOR-DME Name Shigi Frequency 111600 KHZ
Type VOR-DME Name Shinoda Frequency 112300 KHZ
Type VOR-DME Name Tomo Frequency 116400 KHZ
Airport Weather Information & NOTAM
ADDS - METARS form results

(1547 UTC 03 August 2020)
Data provider http://aviationweather.gov/metar/data/
 
METAR text: RJBB 031530Z AUTO 18005KT 9999 NCD 27/22 Q1013 NOSIG
Conditions at: RJBB (KANSAI INTL , JP) observed 1530 UTC 03 August 2020
Temperature: 27.0°C (81°F)
Dewpoint: 22.0°C (72°F) [RH = 74%]
Pressure (altimeter): 29.91 inches Hg (1013.0 mb)
Winds: from the S (180 degrees) at 6 MPH (5 knots; 2.6 m/s)
Visibility: 6 or more miles (10+ km)
Ceiling: at least 12,000 feet AGL
Clouds: sky clear below 12,000 feet AGL
Weather: no significant weather observed at this time

METAR text: RJBB 031500Z AUTO 14005KT 9999 NCD 27/22 Q1013 BECMG 16005KT
Conditions at: RJBB (KANSAI INTL , JP) observed 1500 UTC 03 August 2020
Temperature: 27.0°C (81°F)
Dewpoint: 22.0°C (72°F) [RH = 74%]
Pressure (altimeter): 29.91 inches Hg (1013.0 mb)
Winds: from the SE (140 degrees) at 6 MPH (5 knots; 2.6 m/s)
Visibility: 6 or more miles (10+ km)
Ceiling: at least 12,000 feet AGL
Clouds: sky clear below 12,000 feet AGL
Weather: no significant weather observed at this time

Forecast for: RJBB (KANSAI INTL , JP)
Text: TAF RJBB 031108Z 0312/0418 21010KT 9999 FEW040
Forecast period: 1200 UTC 03 August 2020 to 1500 UTC 04 August 2020
Forecast type: FROM: standard forecast or significant change
Winds: from the SSW (210 degrees) at 12 MPH (10 knots; 5.1 m/s)
Visibility: 6 or more miles 10+ km)
Ceiling: at least 12,000 feet AGL
Clouds: few clouds at 4000 feet AGL
Weather: no significant weather forecast for this period
Text: BECMG 0415/0418 15004KT
Forecast period: 1500 to 1800 UTC 04 August 2020
Forecast type: BECOMING: Conditions expected to become as follows by 1800 UTC 04 August 2020
Winds: from the SSE (150 degrees) at 5 MPH (4 knots; 2.1 m/s)
Visibility: 6 or more miles 10+ km)
Ceiling: at least 12,000 feet AGL
Clouds: few clouds at 4000 feet AGL
Weather: no significant weather forecast for this period